createdAt,value
2019-05-09T00:01:07.838Z,4.00
2019-05-09T00:06:13.579Z,4.60
2019-05-09T00:11:17.577Z,4.00
2019-05-09T00:16:23.512Z,4.00
2019-05-09T00:21:39.328Z,4.00
2019-05-09T00:26:44.356Z,4.20
2019-05-09T00:32:04.888Z,4.50
2019-05-09T00:37:08.880Z,4.75
2019-05-09T00:42:13.737Z,3.50
2019-05-09T00:47:25.104Z,4.00
2019-05-09T00:52:29.123Z,3.00
2019-05-09T00:57:36.098Z,3.20
2019-05-09T01:02:40.198Z,3.60
2019-05-09T01:07:44.222Z,3.50
2019-05-09T01:12:48.215Z,3.00
2019-05-09T01:17:53.649Z,3.80
2019-05-09T01:22:57.811Z,3.00
2019-05-09T01:28:03.287Z,4.00
2019-05-09T01:33:33.279Z,3.00
2019-05-09T01:38:37.415Z,3.60
2019-05-09T01:43:41.458Z,3.20
2019-05-09T01:48:45.539Z,4.00
2019-05-09T01:53:53.231Z,2.60
2019-05-09T01:58:57.413Z,3.00
2019-05-09T02:04:01.480Z,4.20
2019-05-09T02:09:07.013Z,2.00
2019-05-09T02:14:13.468Z,2.75
2019-05-09T02:19:24.113Z,2.50
2019-05-09T02:24:28.382Z,3.00
2019-05-09T02:29:33.747Z,2.40
2019-05-09T02:34:37.846Z,2.75
2019-05-09T02:39:41.860Z,3.25
2019-05-09T02:44:48.974Z,2.75
2019-05-09T02:49:51.811Z,2.00
2019-05-09T02:54:58.360Z,2.60
2019-05-09T03:00:10.262Z,2.60
2019-05-09T03:05:14.392Z,3.50
2019-05-09T03:10:19.349Z,2.40
2019-05-09T03:15:23.610Z,2.80
2019-05-09T03:20:49.659Z,1.00
2019-05-09T03:25:53.747Z,2.00
2019-05-09T03:30:59.473Z,2.00
2019-05-09T03:36:03.715Z,3.00
2019-05-09T03:41:08.630Z,1.25
2019-05-09T03:46:27.897Z,3.00
2019-05-09T03:51:31.259Z,2.00
2019-05-09T03:56:39.630Z,2.20
2019-05-09T04:01:46.768Z,1.20
2019-05-09T04:06:49.446Z,2.20
2019-05-09T04:11:53.481Z,3.00
2019-05-09T04:16:57.688Z,3.00
2019-05-09T04:22:02.349Z,2.75
2019-05-09T04:27:10.919Z,1.50
2019-05-09T04:32:14.949Z,2.00
2019-05-09T04:37:18.957Z,1.00
2019-05-09T04:42:22.992Z,2.00
2019-05-09T04:47:27.828Z,2.00
2019-05-09T04:52:31.949Z,2.00
2019-05-09T04:57:38.147Z,2.00
2019-05-09T05:02:45.274Z,2.00
2019-05-09T05:07:49.308Z,2.00
2019-05-09T05:12:53.334Z,1.00
2019-05-09T05:17:58.285Z,1.25
2019-05-09T05:23:21.225Z,1.40
2019-05-09T05:28:25.236Z,1.00
2019-05-09T05:33:41.791Z,2.00
2019-05-09T05:38:47.987Z,2.25
2019-05-09T05:43:51.757Z,2.00
2019-05-09T05:48:57.756Z,1.75
2019-05-09T05:54:02.173Z,1.25
2019-05-09T05:59:08.395Z,2.00
2019-05-09T06:04:11.929Z,1.00
2019-05-09T06:09:18.673Z,2.00
2019-05-09T06:14:21.718Z,2.00
2019-05-09T06:19:28.425Z,1.00
2019-05-09T06:24:31.570Z,2.00
2019-05-09T06:29:35.597Z,1.80
2019-05-09T06:34:42.127Z,2.00
2019-05-09T06:39:45.599Z,1.20
2019-05-09T06:45:02.028Z,1.75
2019-05-09T06:50:08.990Z,1.00
2019-05-09T06:55:13.326Z,2.00
2019-05-09T07:00:28.317Z,1.00
2019-05-09T07:05:57.570Z,1.00
2019-05-09T07:11:01.752Z,2.00
2019-05-09T07:16:05.955Z,1.00
2019-05-09T07:21:10.154Z,2.00
2019-05-09T07:26:17.865Z,0.75
2019-05-09T07:31:44.687Z,1.25
2019-05-09T07:36:48.673Z,2.00
2019-05-09T07:41:52.667Z,2.00
2019-05-09T07:47:04.777Z,0.75
2019-05-09T07:52:10.333Z,1.00
2019-05-09T07:57:14.759Z,4.25
2019-05-09T08:02:18.850Z,2.00
2019-05-09T08:07:22.942Z,1.00
2019-05-09T08:12:28.438Z,1.80
2019-05-09T08:17:32.650Z,2.00
2019-05-09T08:22:40.973Z,-0.25
2019-05-09T08:27:42.383Z,0.50
2019-05-09T08:32:48.290Z,2.60
2019-05-09T08:37:52.197Z,2.25
2019-05-09T08:42:58.508Z,2.60
2019-05-09T08:48:01.984Z,3.20
2019-05-09T08:53:08.256Z,5.75
2019-05-09T08:58:11.823Z,7.00
2019-05-09T09:03:18.347Z,5.00
2019-05-09T09:08:21.653Z,5.25
2019-05-09T09:13:25.723Z,4.75
2019-05-09T09:18:29.731Z,5.75
2019-05-09T09:23:43.941Z,4.00
2019-05-09T09:28:39.623Z,3.75
2019-05-09T09:33:43.638Z,4.00
2019-05-09T09:38:48.206Z,5.00
2019-05-09T09:43:52.436Z,3.60
2019-05-09T09:48:58.575Z,3.75
2019-05-09T09:54:02.411Z,3.00
2019-05-09T09:59:24.555Z,3.40
2019-05-09T10:04:28.780Z,3.80
2019-05-09T10:09:32.935Z,4.25
2019-05-09T10:14:40.264Z,3.00
2019-05-09T10:19:52.266Z,2.00
2019-05-09T10:24:58.579Z,4.00
2019-05-09T10:30:02.105Z,2.00
2019-05-09T10:35:08.736Z,4.00
2019-05-09T10:40:15.707Z,2.60
2019-05-09T10:45:39.992Z,2.40
2019-05-09T10:50:44.539Z,2.00
2019-05-09T10:55:48.105Z,3.00
2019-05-09T11:00:52.188Z,2.00
2019-05-09T11:05:57.980Z,2.00
2019-05-09T11:11:05.701Z,2.20
2019-05-09T11:16:07.844Z,2.00
2019-05-09T11:21:11.931Z,3.00
2019-05-09T11:26:17.905Z,2.00
2019-05-09T11:31:21.966Z,3.00
2019-05-09T11:36:26.182Z,2.60
2019-05-09T11:41:30.509Z,2.00
2019-05-09T11:46:34.621Z,2.00
2019-05-09T11:51:38.774Z,2.50
2019-05-09T11:56:42.779Z,1.50
2019-05-09T12:01:48.274Z,2.50
2019-05-09T12:06:52.457Z,2.00
2019-05-09T12:11:58.807Z,2.00
2019-05-09T12:17:02.198Z,1.00
2019-05-09T12:22:08.710Z,3.00
2019-05-09T12:27:12.036Z,1.67
2019-05-09T12:32:18.425Z,1.60
2019-05-09T12:37:21.733Z,1.50
2019-05-09T12:42:28.681Z,1.00
2019-05-09T12:47:31.596Z,2.00
2019-05-09T12:52:35.690Z,1.00
2019-05-09T12:57:39.743Z,2.50
2019-05-09T13:02:43.860Z,2.00
2019-05-09T13:07:48.269Z,2.75
2019-05-09T13:12:52.390Z,2.00
2019-05-09T13:17:58.060Z,1.75
2019-05-09T13:23:02.066Z,3.00
2019-05-09T13:28:08.233Z,2.00
2019-05-09T13:33:11.854Z,3.00
2019-05-09T13:38:17.908Z,2.00
2019-05-09T13:43:21.763Z,2.25
2019-05-09T13:48:37.876Z,1.25
2019-05-09T13:53:31.474Z,2.00
2019-05-09T13:58:35.552Z,2.00
2019-05-09T14:03:39.546Z,2.00
2019-05-09T14:08:43.576Z,2.00
2019-05-09T14:13:48.779Z,2.00
2019-05-09T14:18:55.539Z,1.00
2019-05-09T14:24:10.818Z,1.75
2019-05-09T14:29:05.694Z,1.40
2019-05-09T14:34:09.797Z,1.60
2019-05-09T14:39:13.815Z,1.75
2019-05-09T14:44:18.294Z,2.00
2019-05-09T14:49:22.407Z,1.20
2019-05-09T14:54:28.834Z,1.80
2019-05-09T14:59:32.131Z,0.20
2019-05-09T15:04:38.570Z,1.00
2019-05-09T15:09:41.895Z,2.00
2019-05-09T15:14:47.986Z,0.00
2019-05-09T15:19:59.666Z,0.00
2019-05-09T15:24:59.070Z,0.00
2019-05-09T15:30:03.449Z,1.00
2019-05-09T15:35:08.989Z,0.25
2019-05-09T15:40:13.689Z,0.80
2019-05-09T15:45:18.444Z,1.00
2019-05-09T15:50:23.463Z,0.00
2019-05-09T15:55:28.282Z,0.25
2019-05-09T16:00:32.569Z,2.50
2019-05-09T16:05:38.536Z,7.00
2019-05-09T16:10:42.729Z,6.40
2019-05-09T16:15:48.649Z,19.25
2019-05-09T16:20:52.549Z,13.75
2019-05-09T16:25:58.591Z,15.00
2019-05-09T16:31:02.366Z,8.20
2019-05-09T16:36:06.384Z,10.80
2019-05-09T16:41:10.465Z,10.00
2019-05-09T16:46:14.622Z,9.40
2019-05-09T16:51:18.625Z,7.80
2019-05-09T16:56:22.735Z,6.00
2019-05-09T17:01:28.422Z,5.75
2019-05-09T17:06:32.577Z,6.50
2019-05-09T17:11:36.667Z,6.00
2019-05-09T17:16:40.661Z,3.20
2019-05-09T17:21:59.439Z,4.60
2019-05-09T17:27:03.429Z,3.00
2019-05-09T17:32:07.850Z,3.40
2019-05-09T17:37:12.007Z,3.60
2019-05-09T17:42:18.115Z,2.00
2019-05-09T17:47:21.944Z,2.00
2019-05-09T17:52:26.030Z,3.25
2019-05-09T17:57:30.060Z,2.00
2019-05-09T18:02:34.125Z,2.00
2019-05-09T18:07:38.262Z,1.80
2019-05-09T18:12:42.415Z,2.20
2019-05-09T18:17:47.865Z,2.00
2019-05-09T18:22:52.205Z,2.00
2019-05-09T18:27:57.461Z,1.00
2019-05-09T18:33:20.100Z,1.00
2019-05-09T18:38:30.797Z,1.00
2019-05-09T18:43:34.795Z,2.00
2019-05-09T18:48:38.793Z,2.00
2019-05-09T18:53:42.849Z,1.50
2019-05-09T18:58:46.907Z,1.00
2019-05-09T19:03:50.901Z,1.00
2019-05-09T19:08:54.889Z,0.00
2019-05-09T19:13:59.365Z,1.50
2019-05-09T19:19:16.585Z,2.20
2019-05-09T19:24:20.736Z,1.00
2019-05-09T19:29:24.909Z,1.00
2019-05-09T19:34:28.903Z,1.00
2019-05-09T19:39:32.922Z,1.00
2019-05-09T19:44:37.041Z,1.50
2019-05-09T19:49:41.051Z,0.50
2019-05-09T19:54:45.148Z,1.00
2019-05-09T19:59:49.137Z,0.50
2019-05-09T20:04:55.180Z,1.00
2019-05-09T20:10:12.877Z,1.00
2019-05-09T20:15:18.814Z,0.80
2019-05-09T20:20:22.907Z,0.60
2019-05-09T20:25:27.004Z,0.40
2019-05-09T20:30:30.989Z,0.50
2019-05-09T20:35:34.996Z,1.20
2019-05-09T20:40:39.384Z,0.80
2019-05-09T20:45:43.684Z,0.50
2019-05-09T20:50:47.876Z,0.00
2019-05-09T20:55:52.095Z,0.20
2019-05-09T21:00:56.362Z,0.00
2019-05-09T21:06:00.561Z,1.00
2019-05-09T21:11:04.884Z,0.25
2019-05-09T21:16:09.171Z,0.00
2019-05-09T21:21:13.428Z,0.25
2019-05-09T21:26:17.752Z,0.00
2019-05-09T21:31:21.962Z,0.75
2019-05-09T21:36:25.989Z,1.40
2019-05-09T21:41:30.070Z,0.00
2019-05-09T21:46:34.068Z,0.00
2019-05-09T21:51:38.098Z,0.40
2019-05-09T21:56:42.119Z,0.00
2019-05-09T22:01:47.210Z,0.00
2019-05-09T22:06:51.367Z,0.00
2019-05-09T22:11:55.444Z,0.50
2019-05-09T22:17:02.584Z,0.25
2019-05-09T22:22:06.675Z,0.75
2019-05-09T22:27:10.703Z,1.50
2019-05-09T22:32:14.862Z,0.00
2019-05-09T22:37:18.856Z,0.00
2019-05-09T22:42:23.041Z,0.25
2019-05-09T22:47:27.107Z,0.40
2019-05-09T22:52:31.136Z,0.00
2019-05-09T22:57:35.146Z,0.00
2019-05-09T23:02:39.219Z,0.00
2019-05-09T23:07:43.233Z,0.00
2019-05-09T23:12:47.267Z,0.00
2019-05-09T23:17:51.270Z,0.00
2019-05-09T23:22:55.245Z,0.20
2019-05-09T23:27:59.230Z,0.00
2019-05-09T23:33:03.217Z,0.00
2019-05-09T23:38:07.318Z,0.00
2019-05-09T23:43:11.308Z,0.00
2019-05-09T23:48:15.387Z,0.00
2019-05-09T23:53:31.707Z,0.40
2019-05-09T23:58:53.479Z,0.00
